Time,TemperatureF,DewpointF,PressureIn,WindDirection,WindDirectionDegrees,WindSpeedMPH,WindSpeedGustMPH,Humidity,HourlyPrecipIn,Conditions,Clouds,dailyrainin,SoftwareType,DateUTC
2013-05-04 00:00:00,66.5,64.4,29.81,NE,42,3.0,13.0,93,0.00,,,0.00,Weather View 32 v70,2013-05-04 04:00:00,
2013-05-04 00:10:00,66.8,64.4,29.81,ENE,57,4.0,13.0,92,0.00,,,0.00,Weather View 32 v70,2013-05-04 04:10:00,
2013-05-04 00:17:00,66.8,64.4,29.81,ENE,57,4.0,13.0,92,0.00,,,0.00,Weather View 32 v70,2013-05-04 04:17:00,
2013-05-04 00:19:00,67.1,64.4,29.81,NE,52,5.0,13.0,91,0.01,,,0.01,Weather View 32 v70,2013-05-04 04:19:00,
2013-05-04 00:29:00,67.0,64.6,29.81,NE,41,3.0,12.0,92,0.01,,,0.01,Weather View 32 v70,2013-05-04 04:29:00,
2013-05-04 00:40:00,66.8,64.7,29.81,NNE,15,3.0,11.0,93,0.02,,,0.02,Weather View 32 v70,2013-05-04 04:40:00,
2013-05-04 00:50:00,66.6,64.5,29.81,NNE,21,3.0,11.0,93,0.03,,,0.03,Weather View 32 v70,2013-05-04 04:50:00,
2013-05-04 00:59:00,66.4,64.6,29.81,NNE,31,5.0,11.0,94,0.05,,,0.05,Weather View 32 v70,2013-05-04 04:59:00,
2013-05-04 01:09:00,66.2,64.4,29.81,NE,49,5.0,11.0,94,0.09,,,0.09,Weather View 32 v70,2013-05-04 05:09:00,
2013-05-04 01:17:00,66.2,64.4,29.81,NE,49,5.0,11.0,94,0.09,,,0.09,Weather View 32 v70,2013-05-04 05:17:00,
2013-05-04 01:30:00,66.3,64.8,29.79,NNE,22,3.0,13.0,95,0.11,,,0.12,Weather View 32 v70,2013-05-04 05:30:00,
2013-05-04 01:40:00,66.4,64.9,29.79,NE,42,6.0,13.0,95,0.11,,,0.13,Weather View 32 v70,2013-05-04 05:40:00,
2013-05-04 01:50:00,66.4,64.9,29.79,NE,41,11.0,13.0,95,0.11,,,0.14,Weather View 32 v70,2013-05-04 05:50:00,
2013-05-04 02:00:00,66.5,64.7,29.78,NNE,27,11.0,17.0,94,0.10,,,0.15,Weather View 32 v70,2013-05-04 06:00:00,
2013-05-04 02:10:00,66.5,64.7,29.78,NE,34,7.0,17.0,94,0.06,,,0.15,Weather View 32 v70,2013-05-04 06:10:00,
2013-05-04 02:18:00,66.5,64.7,29.78,NE,34,7.0,17.0,94,0.06,,,0.15,Weather View 32 v70,2013-05-04 06:18:00,
2013-05-04 02:20:00,66.3,64.5,29.77,North,355,9.0,17.0,94,0.05,,,0.16,Weather View 32 v70,2013-05-04 06:20:00,
2013-05-04 02:30:00,66.2,64.4,29.77,NE,38,11.0,17.0,94,0.04,,,0.16,Weather View 32 v70,2013-05-04 06:30:00,
2013-05-04 02:40:00,66.2,64.7,29.76,NNE,28,9.0,17.0,95,0.04,,,0.17,Weather View 32 v70,2013-05-04 06:40:00,
2013-05-04 02:50:00,66.2,64.7,29.76,NE,44,10.0,17.0,95,0.03,,,0.17,Weather View 32 v70,2013-05-04 06:50:00,
2013-05-04 03:00:00,66.3,64.8,29.76,NE,39,10.0,17.0,95,0.03,,,0.18,Weather View 32 v70,2013-05-04 07:00:00,
2013-05-04 03:10:00,66.3,64.8,29.75,North,9,9.0,14.0,95,0.04,,,0.19,Weather View 32 v70,2013-05-04 07:10:00,
2013-05-04 03:18:00,66.3,64.8,29.75,North,9,9.0,14.0,95,0.04,,,0.19,Weather View 32 v70,2013-05-04 07:18:00,
2013-05-04 03:30:00,66.2,64.7,29.75,NNE,24,3.0,14.0,95,0.03,,,0.19,Weather View 32 v70,2013-05-04 07:30:00,
2013-05-04 03:39:00,66.2,64.7,29.75,NNE,26,2.0,14.0,95,0.03,,,0.20,Weather View 32 v70,2013-05-04 07:39:00,
2013-05-04 03:49:00,66.1,64.6,29.75,NNW,334,5.0,14.0,95,0.04,,,0.21,Weather View 32 v70,2013-05-04 07:49:00,
2013-05-04 03:59:00,66.2,64.7,29.75,NE,35,5.0,14.0,95,0.04,,,0.22,Weather View 32 v70,2013-05-04 07:59:00,
2013-05-04 04:09:00,66.3,64.8,29.74,NE,55,5.0,14.0,95,0.03,,,0.22,Weather View 32 v70,2013-05-04 08:09:00,
2013-05-04 04:19:00,66.3,64.8,29.74,NE,55,5.0,14.0,95,0.03,,,0.22,Weather View 32 v70,2013-05-04 08:19:00,
2013-05-04 04:20:00,66.4,64.9,29.74,NNE,33,0.0,10.0,95,0.03,,,0.22,Weather View 32 v70,2013-05-04 08:20:00,
2013-05-04 04:30:00,66.4,64.9,29.74,ENE,63,9.0,9.0,95,0.03,,,0.22,Weather View 32 v70,2013-05-04 08:30:00,
2013-05-04 04:40:00,66.6,65.1,29.74,NE,36,5.0,12.0,95,0.02,,,0.22,Weather View 32 v70,2013-05-04 08:40:00,
2013-05-04 04:50:00,66.7,65.2,29.73,NNE,30,2.0,12.0,95,0.01,,,0.22,Weather View 32 v70,2013-05-04 08:50:00,
2013-05-04 05:00:00,66.9,65.4,29.74,NNE,24,7.0,14.0,95,0.00,,,0.22,Weather View 32 v70,2013-05-04 09:00:00,
2013-05-04 05:09:00,66.9,65.4,29.73,NE,53,3.0,14.0,95,0.00,,,0.22,Weather View 32 v70,2013-05-04 09:09:00,
2013-05-04 05:19:00,66.9,65.4,29.73,NE,53,3.0,14.0,95,0.00,,,0.22,Weather View 32 v70,2013-05-04 09:19:00,
2013-05-04 05:30:00,67.0,65.5,29.73,NNE,21,4.0,14.0,95,0.00,,,0.22,Weather View 32 v70,2013-05-04 09:30:00,
2013-05-04 05:40:00,67.0,65.5,29.74,ENE,69,7.0,14.0,95,0.00,,,0.22,Weather View 32 v70,2013-05-04 09:40:00,
2013-05-04 05:49:00,67.1,65.6,29.74,NE,36,2.0,14.0,95,0.00,,,0.22,Weather View 32 v70,2013-05-04 09:49:00,
2013-05-04 06:00:00,67.2,65.7,29.74,NNE,13,3.0,13.0,95,0.00,,,0.22,Weather View 32 v70,2013-05-04 10:00:00,
2013-05-04 06:10:00,67.2,65.7,29.74,NE,49,2.0,13.0,95,0.00,,,0.22,Weather View 32 v70,2013-05-04 10:10:00,
2013-05-04 06:20:00,67.2,65.7,29.73,North,355,4.0,10.0,95,0.00,,,0.22,Weather View 32 v70,2013-05-04 10:20:00,
2013-05-04 06:29:00,67.0,65.5,29.74,NNE,25,2.0,9.0,95,0.00,,,0.22,Weather View 32 v70,2013-05-04 10:29:00,
2013-05-04 06:40:00,66.9,65.4,29.74,NNE,12,0.0,9.0,95,0.00,,,0.22,Weather View 32 v70,2013-05-04 10:40:00,
2013-05-04 06:50:00,66.8,65.3,29.75,NNE,20,0.0,7.0,95,0.00,,,0.22,Weather View 32 v70,2013-05-04 10:50:00,
2013-05-04 07:00:00,66.8,65.6,29.75,NNE,25,1.0,7.0,96,0.00,,,0.22,Weather View 32 v70,2013-05-04 11:00:00,
2013-05-04 07:10:00,66.9,65.7,29.75,North,5,2.0,7.0,96,0.00,,,0.22,Weather View 32 v70,2013-05-04 11:10:00,
2013-05-04 07:20:00,67.0,65.8,29.75,NNE,21,0.0,7.0,96,0.00,,,0.22,Weather View 32 v70,2013-05-04 11:20:00,
2013-05-04 07:21:00,67.0,65.8,29.75,NNE,21,0.0,7.0,96,0.00,,,0.22,Weather View 32 v70,2013-05-04 11:21:00,
2013-05-04 07:29:00,67.1,65.9,29.75,NNE,13,0.0,6.0,96,0.00,,,0.22,Weather View 32 v70,2013-05-04 11:29:00,
2013-05-04 07:40:00,67.3,66.1,29.75,North,5,3.0,6.0,96,0.00,,,0.22,Weather View 32 v70,2013-05-04 11:40:00,
2013-05-04 08:10:00,67.9,66.7,29.75,NNE,19,2.0,7.0,96,0.01,,,0.23,Weather View 32 v70,2013-05-04 12:10:00,
2013-05-04 08:20:00,68.1,66.9,29.75,North,360,3.0,8.0,96,0.01,,,0.23,Weather View 32 v70,2013-05-04 12:20:00,
2013-05-04 08:21:00,68.1,66.9,29.75,North,360,3.0,8.0,96,0.01,,,0.23,Weather View 32 v70,2013-05-04 12:21:00,
2013-05-04 08:30:00,68.3,67.1,29.75,NNE,32,2.0,8.0,96,0.01,,,0.23,Weather View 32 v70,2013-05-04 12:30:00,
2013-05-04 08:40:00,68.5,67.3,29.75,North,351,3.0,8.0,96,0.01,,,0.23,Weather View 32 v70,2013-05-04 12:40:00,
2013-05-04 08:50:00,68.6,67.1,29.75,North,5,3.0,8.0,95,0.01,,,0.23,Weather View 32 v70,2013-05-04 12:50:00,
2013-05-04 09:00:00,68.8,67.3,29.75,ENE,61,2.0,9.0,95,0.00,,,0.23,Weather View 32 v70,2013-05-04 13:00:00,
2013-05-04 09:10:00,69.0,67.5,29.75,North,355,4.0,10.0,95,0.00,,,0.23,Weather View 32 v70,2013-05-04 13:10:00,
2013-05-04 09:19:00,69.0,67.2,29.75,NNE,32,9.0,12.0,94,0.01,,,0.24,Weather View 32 v70,2013-05-04 13:19:00,
2013-05-04 09:22:00,69.0,67.2,29.75,NNE,32,9.0,12.0,94,0.01,,,0.24,Weather View 32 v70,2013-05-04 13:22:00,
2013-05-04 09:30:00,68.9,67.1,29.75,NE,45,6.0,14.0,94,0.01,,,0.24,Weather View 32 v70,2013-05-04 13:30:00,
2013-05-04 09:40:00,68.9,66.8,29.75,NE,40,7.0,14.0,93,0.01,,,0.24,Weather View 32 v70,2013-05-04 13:40:00,
2013-05-04 09:50:00,69.0,66.9,29.76,NE,37,8.0,14.0,93,0.01,,,0.24,Weather View 32 v70,2013-05-04 13:50:00,
2013-05-04 10:00:00,68.9,66.8,29.76,NE,44,11.0,15.0,93,0.01,,,0.24,Weather View 32 v70,2013-05-04 14:00:00,
2013-05-04 10:10:00,68.8,67.0,29.76,NNE,32,6.0,15.0,94,0.01,,,0.24,Weather View 32 v70,2013-05-04 14:10:00,
2013-05-04 10:20:00,68.6,66.8,29.76,North,11,5.0,15.0,94,0.03,,,0.27,Weather View 32 v70,2013-05-04 14:20:00,
2013-05-04 10:22:00,68.6,66.8,29.76,North,11,5.0,15.0,94,0.03,,,0.27,Weather View 32 v70,2013-05-04 14:22:00,
2013-05-04 10:30:00,68.5,67.0,29.76,NE,43,5.0,15.0,95,0.04,,,0.28,Weather View 32 v70,2013-05-04 14:30:00,
2013-05-04 10:40:00,68.5,67.0,29.76,NE,46,6.0,15.0,95,0.04,,,0.28,Weather View 32 v70,2013-05-04 14:40:00,
2013-05-04 10:50:00,68.6,67.1,29.76,NE,38,7.0,15.0,95,0.04,,,0.28,Weather View 32 v70,2013-05-04 14:50:00,
2013-05-04 11:00:00,68.8,67.3,29.76,NE,36,6.0,15.0,95,0.05,,,0.29,Weather View 32 v70,2013-05-04 15:00:00,
2013-05-04 11:10:00,69.2,67.4,29.76,ENE,58,5.0,15.0,94,0.05,,,0.29,Weather View 32 v70,2013-05-04 15:10:00,
2013-05-04 11:20:00,69.2,67.4,29.76,NE,45,4.0,15.0,94,0.02,,,0.29,Weather View 32 v70,2013-05-04 15:20:00,
2013-05-04 11:30:00,69.3,67.5,29.76,NNE,30,15.0,17.0,94,0.01,,,0.29,Weather View 32 v70,2013-05-04 15:30:00,
2013-05-04 11:40:00,69.3,67.8,29.76,North,10,2.0,17.0,95,0.03,,,0.31,Weather View 32 v70,2013-05-04 15:40:00,
2013-05-04 11:50:00,69.2,67.7,29.75,North,11,5.0,17.0,95,0.07,,,0.35,Weather View 32 v70,2013-05-04 15:50:00,
2013-05-04 12:00:00,69.2,67.7,29.75,NNE,21,8.0,17.0,95,0.08,,,0.37,Weather View 32 v70,2013-05-04 16:00:00,
2013-05-04 12:10:00,69.2,67.7,29.75,NE,52,4.0,17.0,95,0.09,,,0.38,Weather View 32 v70,2013-05-04 16:10:00,
2013-05-04 12:20:00,69.3,67.8,29.76,NE,37,3.0,17.0,95,0.09,,,0.38,Weather View 32 v70,2013-05-04 16:20:00,
2013-05-04 12:23:00,69.3,67.8,29.76,NE,37,3.0,17.0,95,0.09,,,0.38,Weather View 32 v70,2013-05-04 16:23:00,
2013-05-04 12:30:00,69.2,67.7,29.75,NE,51,6.0,17.0,95,0.13,,,0.42,Weather View 32 v70,2013-05-04 16:30:00,
2013-05-04 12:40:00,69.3,67.8,29.75,NE,44,7.0,17.0,95,0.16,,,0.47,Weather View 32 v70,2013-05-04 16:40:00,
2013-05-04 12:50:00,69.2,67.7,29.74,NNE,32,6.0,17.0,95,0.17,,,0.52,Weather View 32 v70,2013-05-04 16:50:00,
2013-05-04 13:00:00,69.2,67.7,29.74,NE,40,3.0,17.0,95,0.18,,,0.55,Weather View 32 v70,2013-05-04 17:00:00,
2013-05-04 13:10:00,69.2,67.7,29.74,NE,34,10.0,14.0,95,0.17,,,0.55,Weather View 32 v70,2013-05-04 17:10:00,
2013-05-04 13:20:00,69.4,67.9,29.74,NE,43,3.0,13.0,95,0.19,,,0.57,Weather View 32 v70,2013-05-04 17:20:00,
2013-05-04 13:25:00,69.4,67.9,29.74,NE,43,3.0,13.0,95,0.19,,,0.57,Weather View 32 v70,2013-05-04 17:25:00,
2013-05-04 13:30:00,69.6,68.4,29.73,NE,42,5.0,13.0,96,0.16,,,0.58,Weather View 32 v70,2013-05-04 17:30:00,
2013-05-04 13:40:00,69.6,68.4,29.73,North,349,2.0,13.0,96,0.13,,,0.60,Weather View 32 v70,2013-05-04 17:40:00,
2013-05-04 13:50:00,69.7,68.2,29.73,NE,44,3.0,13.0,95,0.10,,,0.62,Weather View 32 v70,2013-05-04 17:50:00,
2013-05-04 14:00:00,69.8,68.3,29.73,ENE,69,10.0,12.0,95,0.10,,,0.65,Weather View 32 v70,2013-05-04 18:00:00,
2013-05-04 14:10:00,69.9,68.4,29.73,ENE,61,14.0,14.0,95,0.13,,,0.68,Weather View 32 v70,2013-05-04 18:10:00,
2013-05-04 14:20:00,69.8,68.3,29.73,NE,53,8.0,16.0,95,0.13,,,0.70,Weather View 32 v70,2013-05-04 18:20:00,
2013-05-04 14:25:00,69.8,68.3,29.73,NE,53,8.0,16.0,95,0.13,,,0.70,Weather View 32 v70,2013-05-04 18:25:00,
2013-05-04 14:40:00,70.0,68.5,29.72,NE,55,5.0,16.0,95,0.15,,,0.75,Weather View 32 v70,2013-05-04 18:40:00,
2013-05-04 14:50:00,69.9,68.4,29.72,ENE,75,5.0,16.0,95,0.18,,,0.80,Weather View 32 v70,2013-05-04 18:50:00,
2013-05-04 15:00:00,69.9,68.4,29.72,NE,46,6.0,16.0,95,0.23,,,0.88,Weather View 32 v70,2013-05-04 19:00:00,
2013-05-04 15:10:00,69.9,68.4,29.72,ENE,59,8.0,16.0,95,0.27,,,0.95,Weather View 32 v70,2013-05-04 19:10:00,
2013-05-04 15:20:00,69.8,68.3,29.72,NE,51,10.0,15.0,95,0.26,,,0.96,Weather View 32 v70,2013-05-04 19:20:00,
2013-05-04 15:26:00,69.8,68.3,29.72,NE,51,10.0,15.0,95,0.26,,,0.96,Weather View 32 v70,2013-05-04 19:26:00,
2013-05-04 15:30:00,69.9,68.1,29.72,ENE,57,7.0,15.0,94,0.26,,,0.97,Weather View 32 v70,2013-05-04 19:30:00,
2013-05-04 15:40:00,70.0,68.2,29.71,NE,50,6.0,15.0,94,0.23,,,0.98,Weather View 32 v70,2013-05-04 19:40:00,
2013-05-04 15:50:00,70.1,68.3,29.71,ENE,65,7.0,15.0,94,0.18,,,0.98,Weather View 32 v70,2013-05-04 19:50:00,
2013-05-04 16:00:00,70.0,68.2,29.71,ENE,58,4.0,15.0,94,0.10,,,0.98,Weather View 32 v70,2013-05-04 20:00:00,
2013-05-04 16:10:00,70.0,68.2,29.70,North,9,3.0,15.0,94,0.04,,,0.99,Weather View 32 v70,2013-05-04 20:10:00,
2013-05-04 16:20:00,70.1,68.3,29.69,NE,38,5.0,14.0,94,0.03,,,0.99,Weather View 32 v70,2013-05-04 20:20:00,
2013-05-04 16:26:00,70.1,68.3,29.69,NE,38,5.0,14.0,94,0.03,,,0.99,Weather View 32 v70,2013-05-04 20:26:00,
2013-05-04 16:30:00,70.1,68.3,29.69,NE,47,4.0,14.0,94,0.02,,,0.99,Weather View 32 v70,2013-05-04 20:30:00,
2013-05-04 16:40:00,70.4,68.6,29.69,NNE,28,6.0,14.0,94,0.01,,,0.99,Weather View 32 v70,2013-05-04 20:40:00,
2013-05-04 16:50:00,70.6,68.5,29.69,NE,41,1.0,14.0,93,0.01,,,0.99,Weather View 32 v70,2013-05-04 20:50:00,
2013-05-04 17:00:00,70.3,68.5,29.69,ENE,69,5.0,13.0,94,0.01,,,0.99,Weather View 32 v70,2013-05-04 21:00:00,
2013-05-04 17:10:00,70.4,68.6,29.69,NE,51,5.0,12.0,94,0.00,,,0.99,Weather View 32 v70,2013-05-04 21:10:00,
2013-05-04 17:20:00,70.5,68.4,29.69,ENE,74,9.0,14.0,93,0.00,,,0.99,Weather View 32 v70,2013-05-04 21:20:00,
2013-05-04 17:27:00,70.5,68.4,29.69,ENE,74,9.0,14.0,93,0.00,,,0.99,Weather View 32 v70,2013-05-04 21:27:00,
2013-05-04 17:30:00,70.6,68.5,29.69,ENE,59,9.0,14.0,93,0.00,,,0.99,Weather View 32 v70,2013-05-04 21:30:00,
2013-05-04 17:40:00,70.5,68.4,29.69,NE,39,3.0,14.0,93,0.00,,,0.99,Weather View 32 v70,2013-05-04 21:40:00,
2013-05-04 17:50:00,70.4,68.6,29.68,NE,54,4.0,14.0,94,0.00,,,0.99,Weather View 32 v70,2013-05-04 21:50:00,
2013-05-04 18:00:00,70.6,68.5,29.68,ENE,76,5.0,14.0,93,0.00,,,0.99,Weather View 32 v70,2013-05-04 22:00:00,
2013-05-04 18:10:00,70.6,68.5,29.68,ENE,74,1.0,14.0,93,0.00,,,0.99,Weather View 32 v70,2013-05-04 22:10:00,
2013-05-04 18:20:00,70.6,68.8,29.69,ENE,61,3.0,11.0,94,0.00,,,0.99,Weather View 32 v70,2013-05-04 22:20:00,
2013-05-04 18:28:00,70.6,68.8,29.69,ENE,61,3.0,11.0,94,0.00,,,0.99,Weather View 32 v70,2013-05-04 22:28:00,
2013-05-04 18:30:00,70.7,68.9,29.69,ENE,71,2.0,10.0,94,0.00,,,0.99,Weather View 32 v70,2013-05-04 22:30:00,
2013-05-04 18:40:00,70.8,69.0,29.69,East,83,1.0,8.0,94,0.00,,,0.99,Weather View 32 v70,2013-05-04 22:40:00,
2013-05-04 18:50:00,71.0,69.2,29.69,ENE,78,1.0,8.0,94,0.00,,,0.99,Weather View 32 v70,2013-05-04 22:50:00,
2013-05-04 19:00:00,71.0,69.2,29.68,ENE,78,0.0,7.0,94,0.00,,,0.99,Weather View 32 v70,2013-05-04 23:00:00,
2013-05-04 19:10:00,71.2,69.4,29.68,ESE,122,0.0,7.0,94,0.00,,,0.99,Weather View 32 v70,2013-05-04 23:10:00,
2013-05-04 19:20:00,71.4,69.6,29.69,ESE,123,1.0,4.0,94,0.00,,,0.99,Weather View 32 v70,2013-05-04 23:20:00,
2013-05-04 19:28:00,71.4,69.6,29.69,ESE,123,1.0,4.0,94,0.00,,,0.99,Weather View 32 v70,2013-05-04 23:28:00,
2013-05-04 19:30:00,71.6,69.8,29.69,ESE,120,0.0,4.0,94,0.00,,,0.99,Weather View 32 v70,2013-05-04 23:30:00,
2013-05-04 19:40:00,71.9,69.8,29.68,SE,135,0.0,4.0,93,0.00,,,0.99,Weather View 32 v70,2013-05-04 23:40:00,
2013-05-04 19:50:00,71.9,69.8,29.69,South,184,0.0,4.0,93,0.00,,,0.99,Weather View 32 v70,2013-05-04 23:50:00,
2013-05-04 20:00:00,71.7,69.9,29.69,SE,134,0.0,4.0,94,0.00,,,0.99,Weather View 32 v70,2013-05-05 00:00:00,
2013-05-04 20:10:00,71.2,69.4,29.69,WSW,242,1.0,4.0,94,0.01,,,1.00,Weather View 32 v70,2013-05-05 00:10:00,
2013-05-04 20:20:00,70.9,69.4,29.70,WSW,254,0.0,4.0,95,0.09,,,1.08,Weather View 32 v70,2013-05-05 00:20:00,
2013-05-04 20:29:00,70.9,69.4,29.70,WSW,254,0.0,4.0,95,0.09,,,1.08,Weather View 32 v70,2013-05-05 00:29:00,
2013-05-04 20:30:00,70.7,69.5,29.71,West,262,0.0,4.0,96,0.11,,,1.10,Weather View 32 v70,2013-05-05 00:30:00,
2013-05-04 20:40:00,70.5,69.0,29.71,SW,219,1.0,5.0,95,0.12,,,1.11,Weather View 32 v70,2013-05-05 00:40:00,
2013-05-04 20:50:00,70.8,69.3,29.72,East,87,0.0,5.0,95,0.16,,,1.15,Weather View 32 v70,2013-05-05 00:50:00,
2013-05-04 21:00:00,71.1,69.3,29.71,NNE,28,7.0,7.0,94,0.17,,,1.16,Weather View 32 v70,2013-05-05 01:00:00,
2013-05-04 21:10:00,70.9,69.1,29.71,North,5,1.0,7.0,94,0.16,,,1.16,Weather View 32 v70,2013-05-05 01:10:00,
2013-05-04 21:20:00,70.9,69.1,29.72,ENE,63,3.0,7.0,94,0.08,,,1.16,Weather View 32 v70,2013-05-05 01:20:00,
2013-05-04 21:29:00,70.9,69.1,29.72,ENE,63,3.0,7.0,94,0.08,,,1.16,Weather View 32 v70,2013-05-05 01:29:00,
2013-05-04 21:30:00,70.9,69.1,29.73,NE,54,1.0,7.0,94,0.06,,,1.16,Weather View 32 v70,2013-05-05 01:30:00,
2013-05-04 21:40:00,70.9,69.1,29.74,ENE,72,3.0,7.0,94,0.05,,,1.16,Weather View 32 v70,2013-05-05 01:40:00,
2013-05-04 21:50:00,71.0,69.2,29.75,ENE,74,3.0,9.0,94,0.01,,,1.16,Weather View 32 v70,2013-05-05 01:50:00,
2013-05-04 22:00:00,71.0,69.2,29.75,East,85,2.0,9.0,94,0.00,,,1.16,Weather View 32 v70,2013-05-05 02:00:00,
2013-05-04 22:10:00,70.9,69.1,29.74,ESE,109,0.0,9.0,94,0.00,,,1.16,Weather View 32 v70,2013-05-05 02:10:00,
2013-05-04 22:20:00,71.0,69.2,29.75,SE,143,6.0,9.0,94,0.00,,,1.16,Weather View 32 v70,2013-05-05 02:20:00,
2013-05-04 22:30:00,71.0,68.9,29.75,SE,125,4.0,10.0,93,0.01,,,1.17,Weather View 32 v70,2013-05-05 02:30:00,
2013-05-04 22:40:00,70.8,68.7,29.75,ESE,103,3.0,10.0,93,0.01,,,1.17,Weather View 32 v70,2013-05-05 02:40:00,
2013-05-04 22:50:00,69.3,66.5,29.75,ENE,71,3.0,10.0,91,0.01,,,1.17,Weather View 32 v70,2013-05-05 02:50:00,
2013-05-04 23:00:00,68.3,65.6,29.76,East,95,1.0,10.0,91,0.01,,,1.17,Weather View 32 v70,2013-05-05 03:00:00,
2013-05-04 23:10:00,67.6,64.9,29.76,ENE,57,0.0,10.0,91,0.01,,,1.17,Weather View 32 v70,2013-05-05 03:10:00,
2013-05-04 23:20:00,67.3,65.2,29.76,ENE,74,0.0,10.0,93,0.01,,,1.17,Weather View 32 v70,2013-05-05 03:20:00,
2013-05-04 23:30:00,67.1,65.3,29.76,SE,127,0.0,9.0,94,0.00,,,1.17,Weather View 32 v70,2013-05-05 03:30:00,
2013-05-04 23:40:00,67.2,65.1,29.75,SE,127,0.0,8.0,93,0.00,,,1.17,Weather View 32 v70,2013-05-05 03:40:00,
2013-05-04 23:50:00,67.6,65.5,29.75,ESE,123,1.0,6.0,93,0.00,,,1.17,Weather View 32 v70,2013-05-05 03:50:00,